createdAt,value
2017-09-11T00:01:45.022Z,21.00
2017-09-11T00:04:14.911Z,21.00
2017-09-11T00:06:43.803Z,20.90
2017-09-11T00:09:12.593Z,20.90
2017-09-11T00:11:41.483Z,20.80
2017-09-11T00:14:10.373Z,20.80
2017-09-11T00:16:40.254Z,20.80
2017-09-11T00:19:09.550Z,20.70
2017-09-11T00:21:44.856Z,20.80
2017-09-11T00:24:16.518Z,20.80
2017-09-11T00:26:46.095Z,20.80
2017-09-11T00:29:16.546Z,20.80
2017-09-11T00:31:45.621Z,20.70
2017-09-11T00:34:14.826Z,20.80
2017-09-11T00:36:44.320Z,20.80
2017-09-11T00:39:14.805Z,20.80
2017-09-11T00:41:44.230Z,20.80
2017-09-11T00:44:13.449Z,20.80
2017-09-11T00:46:42.344Z,20.80
2017-09-11T00:49:11.539Z,20.70
2017-09-11T00:51:49.505Z,20.70
2017-09-11T00:54:20.714Z,20.70
2017-09-11T00:56:55.517Z,20.70
2017-09-11T00:59:25.339Z,20.70
2017-09-11T01:01:54.242Z,20.70
2017-09-11T01:04:23.522Z,20.70
2017-09-11T01:06:52.824Z,20.60
2017-09-11T01:09:22.023Z,20.60
2017-09-11T01:11:51.369Z,20.60
2017-09-11T01:14:20.418Z,20.60
2017-09-11T01:16:49.718Z,20.60
2017-09-11T01:19:18.609Z,20.60
2017-09-11T01:21:47.664Z,20.50
2017-09-11T01:24:17.866Z,20.50
2017-09-11T01:26:48.013Z,20.50
2017-09-11T01:29:17.476Z,20.50
2017-09-11T01:31:47.471Z,20.50
2017-09-11T01:34:18.225Z,20.50
2017-09-11T01:36:47.054Z,20.50
2017-09-11T01:39:15.889Z,20.50
2017-09-11T01:41:44.780Z,20.50
2017-09-11T01:44:14.484Z,20.50
2017-09-11T01:46:43.592Z,20.50
2017-09-11T01:49:12.572Z,20.50
2017-09-11T01:51:41.608Z,20.60
2017-09-11T01:54:10.363Z,20.60
2017-09-11T01:56:39.450Z,20.50
2017-09-11T01:59:08.955Z,20.40
2017-09-11T02:01:37.846Z,20.40
2017-09-11T02:04:07.348Z,20.40
2017-09-11T02:06:36.347Z,20.40
2017-09-11T02:09:05.376Z,20.30
2017-09-11T02:11:48.410Z,20.30
2017-09-11T02:14:34.697Z,20.30
2017-09-11T02:17:07.912Z,20.20
2017-09-11T02:19:52.756Z,20.30
2017-09-11T02:22:30.590Z,20.30
2017-09-11T02:25:03.104Z,20.30
2017-09-11T02:27:34.189Z,20.30
2017-09-11T02:30:07.358Z,20.30
2017-09-11T02:32:47.473Z,20.30
2017-09-11T02:35:25.091Z,20.40
2017-09-11T02:37:58.049Z,20.40
2017-09-11T02:40:31.776Z,20.30
2017-09-11T02:43:05.450Z,20.20
2017-09-11T02:45:34.674Z,20.20
2017-09-11T02:48:03.568Z,20.20
2017-09-11T02:50:32.452Z,20.10
2017-09-11T02:53:01.242Z,20.10
2017-09-11T02:55:30.236Z,20.10
2017-09-11T02:57:59.692Z,20.10
2017-09-11T03:00:28.846Z,20.10
2017-09-11T03:02:58.762Z,20.10
2017-09-11T03:05:29.085Z,20.10
2017-09-11T03:07:59.516Z,20.00
2017-09-11T03:10:28.911Z,20.00
2017-09-11T03:13:03.900Z,20.00
2017-09-11T03:15:33.937Z,20.00
2017-09-11T03:18:03.677Z,20.00
2017-09-11T03:20:32.467Z,20.00
2017-09-11T03:23:01.956Z,20.00
2017-09-11T03:25:31.528Z,20.00
2017-09-11T03:28:00.578Z,20.00
2017-09-11T03:30:29.964Z,20.00
2017-09-11T03:32:59.323Z,20.00
2017-09-11T03:35:28.695Z,19.90
2017-09-11T03:37:57.915Z,19.90
2017-09-11T03:40:26.862Z,19.90
2017-09-11T03:42:55.759Z,19.90
2017-09-11T03:45:25.266Z,19.80
2017-09-11T03:47:54.150Z,19.80
2017-09-11T03:50:24.037Z,19.80
2017-09-11T03:52:53.211Z,19.80
2017-09-11T03:55:22.296Z,19.80
2017-09-11T03:57:51.216Z,19.90
2017-09-11T04:00:21.375Z,19.90
2017-09-11T04:02:50.466Z,20.00
2017-09-11T04:05:19.267Z,20.00
2017-09-11T04:07:48.400Z,20.00
2017-09-11T04:10:17.366Z,20.10
2017-09-11T04:12:46.136Z,20.00
2017-09-11T04:15:15.027Z,20.00
2017-09-11T04:17:45.559Z,20.00
2017-09-11T04:20:15.679Z,20.10
2017-09-11T04:22:44.567Z,20.10
2017-09-11T04:25:13.568Z,20.00
2017-09-11T04:27:42.552Z,20.00
2017-09-11T04:30:12.299Z,19.90
2017-09-11T04:32:41.295Z,19.90
2017-09-11T04:35:10.763Z,19.80
2017-09-11T04:37:39.550Z,19.80
2017-09-11T04:40:09.259Z,19.90
2017-09-11T04:42:38.356Z,19.80
2017-09-11T04:45:08.168Z,19.80
2017-09-11T04:47:37.061Z,19.70
2017-09-11T04:50:05.904Z,19.70
2017-09-11T04:52:34.842Z,19.70
2017-09-11T04:55:04.556Z,19.70
2017-09-11T04:57:34.273Z,19.70
2017-09-11T05:00:03.671Z,19.70
2017-09-11T05:02:32.643Z,19.80
2017-09-11T05:05:01.756Z,19.80
2017-09-11T05:07:30.644Z,19.70
2017-09-11T05:09:59.848Z,19.70
2017-09-11T05:12:28.912Z,19.70
2017-09-11T05:14:57.730Z,19.60
2017-09-11T05:17:26.518Z,19.50
2017-09-11T05:19:55.319Z,19.50
2017-09-11T05:22:24.912Z,19.40
2017-09-11T05:24:53.803Z,19.40
2017-09-11T05:27:22.892Z,19.40
2017-09-11T05:29:52.089Z,19.50
2017-09-11T05:32:21.300Z,19.40
2017-09-11T05:34:50.187Z,19.40
2017-09-11T05:37:19.079Z,19.30
2017-09-11T05:39:48.043Z,19.30
2017-09-11T05:42:16.970Z,19.30
2017-09-11T05:44:45.856Z,19.20
2017-09-11T05:47:14.742Z,19.30
2017-09-11T05:49:43.851Z,19.20
2017-09-11T05:52:13.554Z,19.20
2017-09-11T05:54:42.654Z,19.20
2017-09-11T05:57:11.500Z,19.20
2017-09-11T05:59:40.434Z,19.30
2017-09-11T06:02:09.318Z,19.30
2017-09-11T06:04:38.254Z,19.30
2017-09-11T06:07:07.927Z,19.30
2017-09-11T06:09:36.813Z,19.30
2017-09-11T06:12:06.520Z,19.40
2017-09-11T06:14:35.579Z,19.30
2017-09-11T06:17:04.927Z,19.40
2017-09-11T06:19:33.811Z,19.50
2017-09-11T06:22:02.749Z,19.50
2017-09-11T06:24:31.802Z,19.50
2017-09-11T06:27:01.003Z,19.60
2017-09-11T06:29:29.997Z,19.60
2017-09-11T06:31:58.892Z,19.70
2017-09-11T06:34:27.912Z,19.70
2017-09-11T06:36:56.674Z,19.70
2017-09-11T06:39:26.377Z,19.70
2017-09-11T06:41:55.389Z,19.70
2017-09-11T06:44:24.461Z,19.70
2017-09-11T06:46:53.831Z,19.80
2017-09-11T06:49:22.864Z,19.80
2017-09-11T06:51:53.260Z,19.80
2017-09-11T06:54:25.819Z,19.80
2017-09-11T06:56:55.072Z,19.90
2017-09-11T06:59:24.976Z,20.00
2017-09-11T07:01:54.495Z,20.00
2017-09-11T07:04:24.194Z,20.20
2017-09-11T07:06:53.916Z,20.20
2017-09-11T07:09:23.837Z,20.50
2017-09-11T07:12:04.590Z,20.50
2017-09-11T07:14:33.685Z,20.90
2017-09-11T07:17:02.637Z,22.30
2017-09-11T07:19:31.500Z,23.80
2017-09-11T07:22:00.360Z,24.90
2017-09-11T07:24:29.518Z,25.70
2017-09-11T07:26:58.509Z,26.40
2017-09-11T07:29:27.798Z,26.90
2017-09-11T07:31:57.662Z,27.90
2017-09-11T07:34:26.524Z,27.90
2017-09-11T07:36:55.650Z,28.10
2017-09-11T07:39:24.757Z,28.30
2017-09-11T07:41:53.426Z,29.30
2017-09-11T07:44:22.318Z,28.10
2017-09-11T07:46:51.286Z,26.50
2017-09-11T07:49:20.076Z,26.60
2017-09-11T07:51:48.991Z,27.80
2017-09-11T07:54:18.706Z,29.70
2017-09-11T07:56:47.800Z,29.70
2017-09-11T07:59:16.695Z,28.40
2017-09-11T08:01:45.745Z,29.00
2017-09-11T08:04:15.041Z,29.70
2017-09-11T08:06:44.179Z,29.60
2017-09-11T08:09:13.279Z,31.60
2017-09-11T08:11:43.556Z,31.50
2017-09-11T08:14:12.548Z,28.20
2017-09-11T08:16:41.484Z,27.30
2017-09-11T08:19:12.990Z,28.30
2017-09-11T08:21:41.950Z,28.20
2017-09-11T08:24:11.623Z,27.40
2017-09-11T08:26:40.916Z,27.40
2017-09-11T08:29:09.633Z,27.40
2017-09-11T08:31:39.033Z,26.20
2017-09-11T08:34:08.027Z,24.60
2017-09-11T08:36:36.880Z,24.40
2017-09-11T08:39:06.215Z,23.90
2017-09-11T08:41:35.116Z,23.40
2017-09-11T08:44:04.189Z,23.60
2017-09-11T08:46:33.128Z,23.40
2017-09-11T08:49:02.880Z,23.70
2017-09-11T08:51:31.957Z,24.20
2017-09-11T08:54:01.303Z,24.20
2017-09-11T08:56:31.522Z,25.00
2017-09-11T08:59:00.724Z,25.50
2017-09-11T09:01:30.316Z,25.00
2017-09-11T09:03:59.899Z,25.20
2017-09-11T09:06:29.012Z,25.50
2017-09-11T09:08:58.037Z,25.10
2017-09-11T09:11:27.117Z,25.50
2017-09-11T09:13:55.963Z,25.30
2017-09-11T09:16:26.092Z,24.80
2017-09-11T09:18:55.137Z,24.80
2017-09-11T09:21:24.441Z,25.30
2017-09-11T09:23:54.177Z,24.90
2017-09-11T09:26:23.337Z,24.90
2017-09-11T09:28:53.255Z,24.80
2017-09-11T09:31:22.246Z,24.80
2017-09-11T09:33:51.353Z,24.80
2017-09-11T09:36:21.665Z,24.50
2017-09-11T09:38:51.183Z,24.70
2017-09-11T09:41:20.070Z,24.60
2017-09-11T09:43:48.952Z,24.80
2017-09-11T09:46:18.175Z,24.90
2017-09-11T09:48:48.175Z,24.90
2017-09-11T09:51:17.168Z,24.90
2017-09-11T09:53:46.203Z,25.00
2017-09-11T09:56:16.048Z,25.10
2017-09-11T09:58:47.481Z,25.10
2017-09-11T10:01:16.719Z,25.10
2017-09-11T10:03:46.568Z,25.00
2017-09-11T10:06:15.973Z,25.00
2017-09-11T10:08:45.853Z,24.80
2017-09-11T10:11:14.846Z,24.80
2017-09-11T10:13:45.580Z,25.10
2017-09-11T10:16:14.722Z,25.10
2017-09-11T10:18:44.049Z,25.20
2017-09-11T10:21:14.600Z,25.10
2017-09-11T10:23:43.942Z,25.20
2017-09-11T10:26:13.838Z,25.30
2017-09-11T10:28:43.243Z,25.30
2017-09-11T10:31:13.159Z,25.30
2017-09-11T10:33:42.661Z,25.30
2017-09-11T10:36:13.734Z,25.20
2017-09-11T10:38:42.893Z,25.20
2017-09-11T10:41:13.017Z,25.20
2017-09-11T10:43:42.102Z,25.10
2017-09-11T10:46:11.205Z,25.10
2017-09-11T10:48:41.983Z,25.20
2017-09-11T10:51:11.042Z,25.20
2017-09-11T10:53:40.537Z,25.20
2017-09-11T10:56:09.834Z,25.20
2017-09-11T10:58:40.979Z,25.40
2017-09-11T11:01:09.905Z,25.40
2017-09-11T11:03:38.947Z,25.40
2017-09-11T11:06:08.683Z,25.30
2017-09-11T11:08:39.516Z,25.40
2017-09-11T11:11:09.770Z,25.40
2017-09-11T11:13:40.159Z,25.70
2017-09-11T11:16:09.151Z,25.70
2017-09-11T11:18:38.600Z,25.80
2017-09-11T11:21:08.064Z,25.70
2017-09-11T11:23:37.159Z,25.80
2017-09-11T11:26:07.404Z,26.20
2017-09-11T11:28:37.760Z,26.20
2017-09-11T11:31:06.701Z,26.80
2017-09-11T11:33:35.742Z,28.10
2017-09-11T11:36:05.268Z,29.70
2017-09-11T11:38:36.009Z,30.40
2017-09-11T11:41:05.340Z,31.20
2017-09-11T11:44:08.435Z,31.10
2017-09-11T11:46:37.342Z,31.80
2017-09-11T11:49:06.508Z,32.50
2017-09-11T11:51:35.483Z,32.90
2017-09-11T11:54:04.462Z,33.60
2017-09-11T11:56:34.611Z,33.60
2017-09-11T11:59:03.688Z,33.60
2017-09-11T12:01:32.713Z,33.70
2017-09-11T12:04:01.821Z,32.70
2017-09-11T12:06:31.467Z,33.10
2017-09-11T12:09:00.697Z,33.10
2017-09-11T12:11:29.677Z,33.40
2017-09-11T12:13:58.516Z,33.40
2017-09-11T12:16:27.980Z,33.20
2017-09-11T12:18:56.895Z,32.90
2017-09-11T12:21:25.953Z,32.50
2017-09-11T12:23:54.828Z,32.20
2017-09-11T12:26:24.281Z,32.10
2017-09-11T12:28:54.004Z,32.30
2017-09-11T12:31:23.016Z,32.60
2017-09-11T12:33:52.469Z,32.50
2017-09-11T12:36:21.388Z,32.20
2017-09-11T12:38:50.913Z,31.90
2017-09-11T12:41:20.904Z,30.00
2017-09-11T12:43:49.934Z,30.00
2017-09-11T12:46:20.038Z,29.60
2017-09-11T12:48:48.916Z,29.20
2017-09-11T12:51:18.470Z,30.00
2017-09-11T12:53:47.920Z,30.70
2017-09-11T12:56:16.822Z,30.10
2017-09-11T12:58:46.325Z,29.00
2017-09-11T13:01:19.510Z,29.30
2017-09-11T13:03:50.517Z,29.90
2017-09-11T13:06:19.463Z,29.80
2017-09-11T13:08:48.421Z,29.10
2017-09-11T13:11:17.330Z,29.10
2017-09-11T13:13:47.113Z,29.80
2017-09-11T13:16:16.903Z,30.20
2017-09-11T13:18:46.052Z,30.30
2017-09-11T13:21:15.151Z,29.80
2017-09-11T13:23:44.346Z,29.30
2017-09-11T13:26:13.703Z,29.30
2017-09-11T13:28:42.791Z,28.90
2017-09-11T13:31:12.724Z,28.50
2017-09-11T13:33:42.672Z,27.90
2017-09-11T13:36:12.842Z,27.90
2017-09-11T13:38:42.203Z,28.00
2017-09-11T13:41:11.458Z,28.10
2017-09-11T13:43:40.507Z,28.40
2017-09-11T13:46:11.336Z,28.50
2017-09-11T13:48:40.442Z,28.00
2017-09-11T13:51:09.581Z,27.40
2017-09-11T13:53:40.928Z,26.80
2017-09-11T13:56:10.922Z,26.60
2017-09-11T13:58:41.437Z,26.50
2017-09-11T14:01:11.454Z,26.30
2017-09-11T14:03:41.352Z,26.10
2017-09-11T14:06:12.005Z,25.90
2017-09-11T14:08:41.348Z,25.90
2017-09-11T14:11:12.325Z,26.30
2017-09-11T14:13:42.198Z,26.30
2017-09-11T14:16:13.000Z,26.40
2017-09-11T14:18:43.965Z,26.40
2017-09-11T14:21:14.561Z,26.20
2017-09-11T14:23:44.200Z,26.10
2017-09-11T14:26:15.112Z,26.00
2017-09-11T14:28:44.508Z,26.10
2017-09-11T14:31:15.406Z,26.00
2017-09-11T14:33:45.770Z,26.00
2017-09-11T14:36:15.386Z,25.80
2017-09-11T14:38:45.661Z,25.70
2017-09-11T14:41:16.481Z,25.80
2017-09-11T14:43:47.072Z,25.80
2017-09-11T14:46:16.048Z,25.90
2017-09-11T14:48:45.390Z,25.90
2017-09-11T14:51:15.304Z,26.00
2017-09-11T14:53:44.927Z,26.00
2017-09-11T14:56:15.396Z,26.00
2017-09-11T14:58:44.897Z,26.30
2017-09-11T15:01:14.456Z,25.80
2017-09-11T15:03:43.770Z,25.60
2017-09-11T15:06:12.955Z,25.60
2017-09-11T15:08:42.735Z,25.50
2017-09-11T15:11:12.378Z,25.40
2017-09-11T15:13:41.546Z,25.10
2017-09-11T15:16:10.347Z,25.10
2017-09-11T15:18:39.778Z,25.20
2017-09-11T15:21:09.736Z,25.20
2017-09-11T15:23:39.632Z,25.00
2017-09-11T15:26:09.564Z,25.00
2017-09-11T15:28:38.528Z,25.00
2017-09-11T15:31:08.330Z,24.90
2017-09-11T15:33:37.775Z,24.90
2017-09-11T15:36:07.135Z,25.00
2017-09-11T15:38:38.111Z,24.90
2017-09-11T15:41:07.448Z,24.90
2017-09-11T15:43:37.783Z,24.80
2017-09-11T15:46:07.196Z,24.80
2017-09-11T15:48:37.228Z,24.90
2017-09-11T15:51:06.694Z,24.80
2017-09-11T15:53:36.887Z,24.80
2017-09-11T15:56:06.617Z,24.80
2017-09-11T15:58:36.024Z,24.80
2017-09-11T16:01:05.099Z,24.70
2017-09-11T16:03:34.542Z,24.50
2017-09-11T16:06:04.020Z,24.40
2017-09-11T16:08:33.313Z,24.40
2017-09-11T16:11:03.436Z,24.40
2017-09-11T16:13:33.926Z,24.40
2017-09-11T16:16:05.086Z,24.30
2017-09-11T16:18:35.052Z,24.30
2017-09-11T16:21:04.724Z,24.20
2017-09-11T16:23:33.849Z,24.20
2017-09-11T16:26:03.717Z,24.20
2017-09-11T16:28:33.864Z,24.30
2017-09-11T16:31:02.869Z,24.30
2017-09-11T16:33:32.287Z,24.20
2017-09-11T16:36:02.418Z,24.10
2017-09-11T16:38:31.729Z,24.20
2017-09-11T16:41:01.081Z,24.20
2017-09-11T16:43:30.470Z,24.20
2017-09-11T16:45:59.392Z,24.10
2017-09-11T16:48:29.272Z,24.00
2017-09-11T16:50:58.384Z,24.10
2017-09-11T16:53:27.617Z,24.10
2017-09-11T16:55:56.892Z,24.10
2017-09-11T16:58:27.945Z,24.20
2017-09-11T17:00:58.148Z,23.90
2017-09-11T17:03:27.337Z,23.90
2017-09-11T17:05:57.000Z,23.90
2017-09-11T17:08:26.679Z,23.90
2017-09-11T17:10:56.013Z,24.00
2017-09-11T17:13:26.444Z,24.00
2017-09-11T17:15:57.366Z,23.90
2017-09-11T17:18:27.199Z,23.90
2017-09-11T17:20:56.450Z,23.90
2017-09-11T17:23:30.233Z,23.90
2017-09-11T17:26:00.178Z,23.90
2017-09-11T17:28:29.185Z,23.80
2017-09-11T17:30:58.481Z,23.80
2017-09-11T17:33:28.007Z,23.80
2017-09-11T17:35:58.328Z,23.70
2017-09-11T17:38:27.404Z,23.70
2017-09-11T17:40:56.428Z,23.70
2017-09-11T17:43:26.556Z,23.70
2017-09-11T17:45:55.687Z,23.60
2017-09-11T17:48:25.096Z,23.60
2017-09-11T17:50:55.984Z,23.60
2017-09-11T17:53:26.466Z,23.60
2017-09-11T17:55:55.980Z,23.50
2017-09-11T17:58:24.868Z,23.50
2017-09-11T18:00:54.856Z,23.40
2017-09-11T18:03:26.145Z,23.30
2017-09-11T18:05:57.380Z,23.30
2017-09-11T18:08:27.773Z,23.20
2017-09-11T18:10:58.527Z,23.30
2017-09-11T18:13:28.652Z,23.20
2017-09-11T18:15:58.345Z,23.20
2017-09-11T18:18:28.907Z,23.20
2017-09-11T18:21:01.321Z,23.20
2017-09-11T18:23:31.455Z,23.20
2017-09-11T18:26:01.464Z,23.20
2017-09-11T18:28:31.917Z,23.20
2017-09-11T18:31:01.348Z,23.20
2017-09-11T18:33:30.942Z,23.20
2017-09-11T18:36:01.532Z,23.20
2017-09-11T18:38:30.783Z,23.10
2017-09-11T18:41:02.973Z,23.10
2017-09-11T18:43:32.245Z,23.20
2017-09-11T18:46:01.335Z,23.10
2017-09-11T18:48:32.419Z,23.10
2017-09-11T18:51:03.111Z,23.10
2017-09-11T18:53:32.001Z,23.10
2017-09-11T18:56:01.393Z,23.20
2017-09-11T18:58:30.468Z,23.10
2017-09-11T19:00:59.662Z,23.10
2017-09-11T19:03:28.634Z,23.00
2017-09-11T19:05:57.583Z,23.10
2017-09-11T19:08:27.230Z,23.10
2017-09-11T19:10:56.670Z,23.10
2017-09-11T19:13:27.913Z,23.00
2017-09-11T19:15:58.347Z,23.00
2017-09-11T19:18:28.183Z,22.90
2017-09-11T19:20:57.170Z,23.00
2017-09-11T19:23:25.964Z,23.00
2017-09-11T19:25:55.049Z,23.00
2017-09-11T19:28:24.809Z,23.00
2017-09-11T19:30:55.517Z,23.00
2017-09-11T19:33:25.215Z,23.00
2017-09-11T19:35:54.705Z,23.00
2017-09-11T19:38:26.790Z,22.90
2017-09-11T19:40:56.390Z,22.90
2017-09-11T19:43:29.278Z,22.90
2017-09-11T19:45:59.432Z,22.90
2017-09-11T19:48:29.889Z,23.00
2017-09-11T19:51:01.628Z,22.90
2017-09-11T19:53:33.667Z,23.00
2017-09-11T19:56:08.510Z,22.90
2017-09-11T19:58:39.421Z,23.00
2017-09-11T20:01:08.592Z,23.00
2017-09-11T20:03:37.593Z,23.00
2017-09-11T20:06:07.093Z,23.10
2017-09-11T20:08:40.959Z,23.10
2017-09-11T20:11:09.773Z,23.00
2017-09-11T20:13:40.392Z,23.10
2017-09-11T20:16:11.264Z,23.10
2017-09-11T20:18:40.708Z,23.10
2017-09-11T20:21:13.646Z,23.20
2017-09-11T20:23:48.873Z,23.20
2017-09-11T20:26:29.830Z,23.40
2017-09-11T20:29:06.337Z,23.30
2017-09-11T20:31:39.043Z,23.40
2017-09-11T20:34:14.280Z,23.40
2017-09-11T20:36:47.005Z,23.40
2017-09-11T20:39:20.617Z,23.40
2017-09-11T20:41:51.340Z,23.40
2017-09-11T20:44:22.432Z,23.40
2017-09-11T20:46:55.871Z,23.40
2017-09-11T20:49:25.511Z,23.40
2017-09-11T20:52:00.627Z,23.40
2017-09-11T20:54:30.517Z,23.40
2017-09-11T20:57:00.050Z,23.40
2017-09-11T20:59:29.585Z,23.30
2017-09-11T21:01:59.374Z,23.30
2017-09-11T21:04:28.733Z,23.20
2017-09-11T21:06:59.103Z,23.20
2017-09-11T21:09:30.155Z,23.10
2017-09-11T21:12:00.021Z,23.10
2017-09-11T21:14:29.828Z,23.10
2017-09-11T21:17:08.958Z,23.10
2017-09-11T21:19:43.215Z,23.10
2017-09-11T21:22:14.826Z,23.00
2017-09-11T21:24:46.420Z,23.00
2017-09-11T21:27:19.383Z,23.10
2017-09-11T21:29:51.745Z,23.10
2017-09-11T21:32:24.958Z,23.10
2017-09-11T21:34:56.455Z,23.10
2017-09-11T21:37:27.148Z,23.10
2017-09-11T21:40:04.857Z,23.10
2017-09-11T21:42:41.218Z,23.00
2017-09-11T21:45:10.883Z,23.00
2017-09-11T21:47:40.153Z,23.10
2017-09-11T21:50:09.207Z,23.10
2017-09-11T21:52:39.053Z,23.10
2017-09-11T21:55:08.534Z,23.10
2017-09-11T21:57:39.039Z,23.10
2017-09-11T22:00:26.313Z,23.10
2017-09-11T22:02:56.205Z,23.10
2017-09-11T22:05:27.389Z,23.10
2017-09-11T22:07:57.115Z,23.10
2017-09-11T22:10:26.458Z,23.10
2017-09-11T22:12:55.729Z,23.10
2017-09-11T22:15:26.368Z,23.20
2017-09-11T22:17:56.607Z,23.20
2017-09-11T22:20:26.019Z,23.20
2017-09-11T22:22:55.941Z,23.20
2017-09-11T22:25:25.142Z,23.20
2017-09-11T22:27:54.442Z,23.20
2017-09-11T22:30:23.900Z,23.20
2017-09-11T22:32:54.571Z,23.20
2017-09-11T22:35:23.727Z,23.20
2017-09-11T22:37:53.816Z,23.20
2017-09-11T22:40:24.374Z,23.20
2017-09-11T22:42:53.740Z,23.20
2017-09-11T22:45:22.782Z,23.30
2017-09-11T22:47:52.483Z,23.30
2017-09-11T22:50:22.566Z,23.30
2017-09-11T22:52:52.110Z,23.30
2017-09-11T22:55:22.256Z,23.30
2017-09-11T22:57:51.217Z,23.40
2017-09-11T23:00:21.981Z,23.40
2017-09-11T23:02:51.122Z,23.40
2017-09-11T23:05:20.840Z,23.40
2017-09-11T23:07:49.752Z,23.40
2017-09-11T23:10:19.001Z,23.40
2017-09-11T23:12:47.837Z,23.40
2017-09-11T23:15:16.754Z,23.40
2017-09-11T23:17:46.438Z,23.40
2017-09-11T23:20:15.765Z,23.40
2017-09-11T23:22:44.886Z,23.40
2017-09-11T23:25:14.243Z,23.40
2017-09-11T23:27:43.131Z,23.30
2017-09-11T23:30:13.198Z,23.40
2017-09-11T23:32:42.242Z,23.40
2017-09-11T23:35:11.010Z,23.30
2017-09-11T23:37:40.107Z,23.40
2017-09-11T23:40:10.127Z,23.30
2017-09-11T23:42:39.038Z,23.30
2017-09-11T23:45:08.402Z,23.40
2017-09-11T23:47:37.333Z,23.40
2017-09-11T23:50:06.636Z,23.40
2017-09-11T23:52:36.550Z,23.50
2017-09-11T23:55:05.642Z,23.50
2017-09-11T23:57:34.635Z,23.40
